Big Pine Key, FL (33043)

5:01 AM EDT on September 05, 2015 (GMT -0400)
Breezeswept Estates - Bird Lake - Ramrod | | Change Station
CLOSE
Current Station
Personal Weather Station
Location: Ramrod Key, FL
Elevation: 25 ft
Nearby Weather Stations

Elev 25 ft 24.65 °N, 81.41 °W | Updated 4 seconds ago

Partly Cloudy
Partly Cloudy
84.2 °F
Feels Like 93 °F
N
4.2
Wind Variable Wind from NNE
Gusts 9.8 mph

Today
High -- | Low -- °F
--% Chance of Precip.
Yesterday
High -- | Low -- °F
Precip. -- in
7:07 AM 7:40 PM
Waning Gibbous, 50% visible
Pressure 29.95 in
Visibility 10.0 miles
Clouds Clear
Heat Index 93 °F
Dew Point 76 °F
Humidity 76%
Rainfall 0.00 in
Snow Depth Not available.
UV 0 out of 12
Pollen 4.80 out of 12
Air Quality Not available.
Flu Activity Not available.
METAR KNQX 050853Z AUTO 33004KT 10SM CLR 29/23 A2995 RMK AO2 TSE0754 SLP140 T02940233 53001 $
Pressure 29.95 in
Visibility 10.0 miles
Clouds Clear
Heat Index 93 °F
Dew Point 76 °F
Humidity 76%
Rainfall 0.00 in
Snow Depth Not available.
UV 0 out of 12
Pollen 4.80 out of 12
Air Quality Not available.
Flu Activity Not available.
METAR KNQX 050853Z AUTO 33004KT 10SM CLR 29/23 A2995 RMK AO2 TSE0754 SLP140 T02940233 53001 $
Nowcast | as of 4:55 am EDT on September 5, 2015

Through 600 am...a broken band of showers with one or two embedded thunderstorms will be found along the length of the Florida Straits...mainly from Hawk Channel to 40 nm out. Other scattered showers will be found on the near and offshore Gulf waters from the Lower Keys to the Dry Tortugas. The stronger activity will produce wind gusts near 25 mph...heavy downpours...and a few lightning strikes. Island locations near Bahia Honda can expect to be affected by a round of showers and thunderstorms.

×

10-Day Weather Forecast

×

Almanac

Astronomy

Sep. 05, 2015 Rise Set
Actual Time
Civil Twilight
Nautical Twilight
Astronomical Twilight
Moon
Length of Visible Light
Length of Day
Tomorrow will be .
, % of the Moon is Illuminated

Today's Extremes

State Highs State Lows

Community

WunderPhotos

Upload Photos

1,852,440 photos uploaded!

WunderBlogs® & News

Nearby

Air Quality

  Air Quality AQ Index Pollutant
Not available.

Snow Depth

Station Depth Elevation

Earthquake Activity

City Distance Mag. Time & Date
Minimum magnitude displayed is 2.5.

Coastal Water Temperatures

Place Temperature

Stations

Nearby Weather Stations

Station Location Temp. Windchill Dew Point Humidity Wind Precip. Elev Updated Type